createdAt,value
2023-02-25T00:01:36.765Z,9.62
2023-02-25T00:04:04.028Z,9.56
2023-02-25T00:06:30.950Z,9.12
2023-02-25T00:08:57.961Z,9.40
2023-02-25T00:11:28.393Z,9.32
2023-02-25T00:14:00.449Z,9.09
2023-02-25T00:16:30.322Z,8.88
2023-02-25T00:19:00.666Z,9.03
2023-02-25T00:21:34.543Z,9.00
2023-02-25T00:24:16.441Z,9.61
2023-02-25T00:26:44.276Z,9.61
2023-02-25T00:29:13.852Z,9.41
2023-02-25T00:31:43.372Z,9.09
2023-02-25T00:34:11.234Z,9.72
2023-02-25T00:36:38.410Z,9.61
2023-02-25T00:39:06.035Z,9.78
2023-02-25T00:41:35.146Z,8.72
2023-02-25T00:44:02.834Z,9.90
2023-02-25T00:46:31.250Z,9.24
2023-02-25T00:49:00.728Z,9.33
2023-02-25T00:51:28.904Z,9.95
2023-02-25T00:53:56.634Z,9.94
2023-02-25T00:56:24.871Z,9.93
2023-02-25T00:58:54.523Z,9.79
2023-02-25T01:01:26.403Z,9.93
2023-02-25T01:03:57.114Z,9.96
2023-02-25T01:06:30.746Z,9.96
2023-02-25T01:08:58.632Z,9.83
2023-02-25T01:11:30.599Z,9.18
2023-02-25T01:13:59.566Z,9.87
2023-02-25T01:16:28.850Z,9.00
2023-02-25T01:19:01.257Z,8.95
2023-02-25T01:21:30.720Z,10.04
2023-02-25T01:24:01.203Z,10.04
2023-02-25T01:26:38.799Z,10.01
2023-02-25T01:29:13.081Z,9.42
2023-02-25T01:31:40.686Z,9.68
2023-02-25T01:34:10.640Z,9.76
2023-02-25T01:36:40.017Z,9.88
2023-02-25T01:39:08.687Z,9.82
2023-02-25T01:41:39.297Z,9.09
2023-02-25T01:44:17.237Z,9.50
2023-02-25T01:46:51.587Z,9.75
2023-02-25T01:49:34.860Z,8.55
2023-02-25T01:52:11.457Z,9.01
2023-02-25T01:54:47.597Z,8.80
2023-02-25T01:57:18.664Z,8.90
2023-02-25T01:59:49.601Z,8.94
2023-02-25T02:02:23.063Z,9.46
2023-02-25T02:04:52.373Z,8.92
2023-02-25T02:07:25.603Z,9.11
2023-02-25T02:09:58.694Z,8.57
2023-02-25T02:12:41.116Z,9.26
2023-02-25T02:15:14.108Z,9.22
2023-02-25T02:17:48.505Z,8.99
2023-02-25T02:20:25.467Z,8.54
2023-02-25T02:23:15.160Z,9.27
2023-02-25T02:26:15.949Z,9.18
2023-02-25T02:29:00.619Z,8.93
2023-02-25T02:31:43.276Z,9.09
2023-02-25T02:34:33.301Z,9.06
2023-02-25T02:37:38.674Z,8.99
2023-02-25T02:40:16.421Z,8.93
2023-02-25T02:43:06.649Z,8.45
2023-02-25T02:46:04.519Z,8.84
2023-02-25T02:48:38.989Z,8.84
2023-02-25T02:51:17.459Z,8.80
2023-02-25T02:54:05.989Z,8.78
2023-02-25T02:56:39.545Z,8.44
2023-02-25T02:59:15.164Z,8.91
2023-02-25T03:01:46.857Z,8.17
2023-02-25T03:04:18.616Z,6.46
2023-02-25T03:06:49.123Z,8.12
2023-02-25T03:09:24.008Z,9.04
2023-02-25T03:11:51.284Z,7.37
2023-02-25T03:14:18.892Z,8.47
2023-02-25T03:16:59.649Z,8.97
2023-02-25T03:19:37.475Z,8.30
2023-02-25T03:22:17.613Z,8.25
2023-02-25T03:25:18.547Z,8.95
2023-02-25T03:27:52.530Z,8.94
2023-02-25T03:30:38.501Z,8.95
2023-02-25T03:33:23.491Z,8.95
2023-02-25T03:35:57.382Z,8.79
2023-02-25T03:38:29.244Z,8.82
2023-02-25T03:41:01.186Z,9.03
2023-02-25T03:43:34.014Z,8.64
2023-02-25T03:46:02.316Z,8.30
2023-02-25T03:48:37.488Z,8.63
2023-02-25T03:51:09.170Z,8.67
2023-02-25T03:53:43.051Z,8.75
2023-02-25T03:56:23.549Z,9.31
2023-02-25T03:58:51.657Z,9.32
2023-02-25T04:01:29.010Z,9.57
2023-02-25T04:03:55.845Z,9.41
2023-02-25T04:06:27.981Z,9.41
2023-02-25T04:09:00.517Z,9.53
2023-02-25T04:11:28.216Z,9.44
2023-02-25T04:14:00.188Z,9.91
2023-02-25T04:16:32.245Z,9.04
2023-02-25T04:18:59.968Z,9.64
2023-02-25T04:21:32.411Z,9.45
2023-02-25T04:24:02.066Z,10.12
2023-02-25T04:26:28.914Z,9.84
2023-02-25T04:28:55.830Z,9.69
2023-02-25T04:31:27.697Z,9.82
2023-02-25T04:33:57.170Z,10.14
2023-02-25T04:36:34.268Z,10.29
2023-02-25T04:39:10.337Z,10.26
2023-02-25T04:41:40.831Z,9.37
2023-02-25T04:44:18.248Z,9.63
2023-02-25T04:46:54.342Z,9.34
2023-02-25T04:49:24.206Z,8.65
2023-02-25T04:51:58.190Z,9.07
2023-02-25T04:54:28.535Z,8.93
2023-02-25T04:57:01.399Z,9.07
2023-02-25T04:59:29.535Z,9.11
2023-02-25T05:02:03.560Z,9.21
2023-02-25T05:04:42.185Z,9.39
2023-02-25T05:07:13.149Z,8.49
2023-02-25T05:09:49.056Z,9.57
2023-02-25T05:12:19.537Z,8.73
2023-02-25T05:14:50.001Z,8.28
2023-02-25T05:17:19.661Z,9.25
2023-02-25T05:19:47.292Z,9.09
2023-02-25T05:22:28.934Z,7.73
2023-02-25T05:24:58.264Z,9.15
2023-02-25T05:27:41.232Z,8.85
2023-02-25T05:30:17.510Z,7.97
2023-02-25T05:32:47.691Z,9.09
2023-02-25T05:35:19.937Z,8.43
2023-02-25T05:37:52.447Z,8.96
2023-02-25T05:40:25.680Z,8.35
2023-02-25T05:42:58.898Z,7.83
2023-02-25T05:45:28.987Z,8.53
2023-02-25T05:48:00.369Z,5.77
2023-02-25T05:50:29.860Z,8.60
2023-02-25T05:53:03.337Z,7.57
2023-02-25T05:55:38.542Z,6.00
2023-02-25T05:58:10.360Z,7.85
2023-02-25T06:00:43.446Z,7.30
2023-02-25T06:03:15.877Z,8.32
2023-02-25T06:05:48.004Z,8.07
2023-02-25T06:08:22.871Z,7.24
2023-02-25T06:10:52.208Z,6.88
2023-02-25T06:13:19.343Z,7.55
2023-02-25T06:15:50.172Z,8.08
2023-02-25T06:18:17.612Z,8.01
2023-02-25T06:20:44.568Z,7.93
2023-02-25T06:23:16.339Z,7.17
2023-02-25T06:25:51.269Z,7.25
2023-02-25T06:28:18.902Z,6.98
2023-02-25T06:30:53.495Z,6.86
2023-02-25T06:33:24.205Z,5.95
2023-02-25T06:35:56.886Z,6.05
2023-02-25T06:38:37.525Z,7.13
2023-02-25T06:41:09.208Z,7.09
2023-02-25T06:43:42.376Z,7.12
2023-02-25T06:46:13.876Z,6.82
2023-02-25T06:48:42.913Z,6.94
2023-02-25T06:51:15.236Z,6.28
2023-02-25T06:53:45.537Z,7.11
2023-02-25T06:56:14.116Z,6.79
2023-02-25T06:58:44.254Z,6.46
2023-02-25T07:01:13.769Z,7.18
2023-02-25T07:03:41.671Z,7.23
2023-02-25T07:06:10.551Z,6.39
2023-02-25T07:08:42.540Z,6.76
2023-02-25T07:11:29.336Z,7.39
2023-02-25T07:14:01.931Z,7.00
2023-02-25T07:16:30.139Z,6.69
2023-02-25T07:18:58.463Z,6.82
2023-02-25T07:21:29.546Z,7.53
2023-02-25T07:24:01.293Z,7.10
2023-02-25T07:26:34.965Z,7.52
2023-02-25T07:29:07.018Z,7.47
2023-02-25T07:31:37.925Z,7.66
2023-02-25T07:34:04.801Z,7.41
2023-02-25T07:36:33.541Z,6.78
2023-02-25T07:39:06.799Z,7.57
2023-02-25T07:41:36.873Z,7.58
2023-02-25T07:44:06.208Z,7.50
2023-02-25T07:46:35.653Z,7.24
2023-02-25T07:49:03.080Z,6.98
2023-02-25T07:51:38.828Z,6.16
2023-02-25T07:54:05.982Z,6.28
2023-02-25T07:56:37.036Z,6.72
2023-02-25T07:59:09.927Z,6.20
2023-02-25T08:01:39.810Z,6.81
2023-02-25T08:04:09.296Z,6.74
2023-02-25T08:06:41.609Z,7.25
2023-02-25T08:09:12.463Z,6.82
2023-02-25T08:11:49.157Z,7.10
2023-02-25T08:14:16.318Z,7.11
2023-02-25T08:16:45.828Z,6.88
2023-02-25T08:19:15.270Z,7.34
2023-02-25T08:21:47.974Z,7.24
2023-02-25T08:24:21.062Z,6.68
2023-02-25T08:26:48.300Z,7.15
2023-02-25T08:29:21.038Z,6.12
2023-02-25T08:31:50.436Z,6.47
2023-02-25T08:34:22.110Z,6.53
2023-02-25T08:36:51.111Z,6.81
2023-02-25T08:39:20.866Z,6.96
2023-02-25T08:41:49.990Z,6.68
2023-02-25T08:44:20.686Z,7.22
2023-02-25T08:46:52.878Z,7.53
2023-02-25T08:49:24.576Z,6.95
2023-02-25T08:51:53.912Z,7.56
2023-02-25T08:54:20.760Z,7.60
2023-02-25T08:56:52.814Z,7.62
2023-02-25T08:59:19.635Z,7.35
2023-02-25T09:01:50.404Z,6.93
2023-02-25T09:04:20.217Z,6.49
2023-02-25T09:06:47.741Z,6.66
2023-02-25T09:09:18.396Z,6.99
2023-02-25T09:11:46.263Z,7.45
2023-02-25T09:14:14.152Z,7.34
2023-02-25T09:16:41.134Z,6.89
2023-02-25T09:19:18.513Z,6.81
2023-02-25T09:21:48.287Z,7.84
2023-02-25T09:24:26.470Z,7.45
2023-02-25T09:26:55.574Z,7.43
2023-02-25T09:29:22.247Z,6.82
2023-02-25T09:31:54.222Z,6.33
2023-02-25T09:34:26.338Z,7.02
2023-02-25T09:36:57.496Z,7.14
2023-02-25T09:39:31.938Z,6.62
2023-02-25T09:42:51.100Z,5.86
2023-02-25T09:45:28.277Z,7.28
2023-02-25T09:48:01.415Z,7.17
2023-02-25T09:50:40.742Z,7.31
2023-02-25T09:53:28.970Z,7.51
2023-02-25T09:55:59.247Z,7.64
2023-02-25T09:58:45.787Z,7.32
2023-02-25T10:01:34.549Z,7.45
2023-02-25T10:04:23.174Z,7.97
2023-02-25T10:06:51.803Z,7.62
2023-02-25T10:09:39.787Z,7.64
2023-02-25T10:12:22.192Z,7.15
2023-02-25T10:15:26.760Z,7.59
2023-02-25T10:18:22.051Z,7.81
2023-02-25T10:21:26.105Z,7.90
2023-02-25T10:24:28.344Z,6.98
2023-02-25T10:27:00.889Z,7.14
2023-02-25T10:29:42.449Z,7.27
2023-02-25T10:32:17.068Z,7.99
2023-02-25T10:34:44.405Z,7.97
2023-02-25T10:37:21.029Z,7.44
2023-02-25T10:39:50.836Z,7.99
2023-02-25T10:42:21.690Z,7.29
2023-02-25T10:44:48.807Z,8.23
2023-02-25T10:47:38.146Z,8.55
2023-02-25T10:50:14.686Z,8.75
2023-02-25T10:53:13.411Z,8.55
2023-02-25T10:55:54.706Z,7.94
2023-02-25T10:58:38.318Z,8.61
2023-02-25T11:01:14.983Z,8.35
2023-02-25T11:03:54.383Z,8.36
2023-02-25T11:06:33.230Z,9.00
2023-02-25T11:09:02.319Z,8.53
2023-02-25T11:11:33.264Z,7.91
2023-02-25T11:14:02.320Z,8.63
2023-02-25T11:16:37.201Z,8.79
2023-02-25T11:19:27.482Z,8.79
2023-02-25T11:22:09.287Z,8.24
2023-02-25T11:24:38.543Z,8.72
2023-02-25T11:27:20.525Z,8.90
2023-02-25T11:29:50.599Z,9.39
2023-02-25T11:32:28.850Z,8.95
2023-02-25T11:35:08.762Z,9.72
2023-02-25T11:37:36.384Z,9.62
2023-02-25T11:40:28.092Z,9.67
2023-02-25T11:43:05.118Z,10.49
2023-02-25T11:45:37.153Z,10.17
2023-02-25T11:48:05.932Z,10.54
2023-02-25T11:50:42.760Z,9.47
2023-02-25T11:53:28.096Z,9.95
2023-02-25T11:56:08.232Z,9.54
2023-02-25T11:59:15.489Z,9.53
2023-02-25T12:01:57.413Z,9.68
2023-02-25T12:04:52.299Z,10.11
2023-02-25T12:07:55.547Z,10.54
2023-02-25T12:11:08.788Z,10.42
2023-02-25T12:13:44.238Z,9.81
2023-02-25T12:16:38.703Z,10.03
2023-02-25T12:19:24.152Z,10.95
2023-02-25T12:22:14.927Z,11.85
2023-02-25T12:24:43.340Z,11.85
2023-02-25T12:27:37.338Z,11.82
2023-02-25T12:30:13.502Z,11.95
2023-02-25T12:32:58.796Z,11.21
2023-02-25T12:35:40.738Z,11.43
2023-02-25T12:38:19.682Z,11.87
2023-02-25T12:41:18.149Z,11.93
2023-02-25T12:43:52.840Z,11.92
2023-02-25T12:46:32.175Z,12.90
2023-02-25T12:49:17.481Z,12.54
2023-02-25T12:52:10.404Z,12.55
2023-02-25T12:54:49.846Z,12.31
2023-02-25T12:57:39.703Z,13.73
2023-02-25T13:00:47.648Z,14.81
2023-02-25T13:03:59.007Z,15.79
2023-02-25T13:06:35.318Z,15.38
2023-02-25T13:09:33.243Z,15.71
2023-02-25T13:12:20.055Z,16.85
2023-02-25T13:15:07.547Z,18.63
2023-02-25T13:17:53.549Z,20.10
2023-02-25T13:20:29.469Z,20.08
2023-02-25T13:23:16.099Z,17.76
2023-02-25T13:26:13.181Z,16.65
2023-02-25T13:29:03.331Z,16.37
2023-02-25T13:31:47.613Z,16.44
2023-02-25T13:34:45.083Z,17.24
2023-02-25T13:37:31.605Z,18.46
2023-02-25T13:40:22.490Z,18.66
2023-02-25T13:43:17.006Z,18.16
2023-02-25T13:45:47.122Z,18.54
2023-02-25T13:48:22.067Z,17.15
2023-02-25T13:51:13.869Z,16.94
2023-02-25T13:53:58.195Z,17.93
2023-02-25T13:56:29.720Z,18.62
2023-02-25T13:59:35.764Z,18.47
2023-02-25T14:02:47.050Z,18.47
2023-02-25T14:05:37.323Z,19.63
2023-02-25T14:08:22.353Z,19.30
2023-02-25T14:11:26.946Z,18.80
2023-02-25T14:14:19.817Z,19.11
2023-02-25T14:16:58.100Z,18.68
2023-02-25T14:19:47.745Z,19.03
2023-02-25T14:22:24.881Z,19.57
2023-02-25T14:25:16.593Z,19.50
2023-02-25T14:28:00.530Z,19.94
2023-02-25T14:30:39.825Z,19.99
2023-02-25T14:33:26.283Z,18.46
2023-02-25T14:36:23.240Z,18.31
2023-02-25T14:39:19.701Z,19.80
2023-02-25T14:42:05.348Z,20.70
2023-02-25T14:44:41.213Z,19.62
2023-02-25T14:47:16.847Z,18.62
2023-02-25T14:49:53.380Z,16.91
2023-02-25T14:52:47.975Z,15.26
2023-02-25T14:55:50.184Z,14.66
2023-02-25T14:58:22.910Z,15.00
2023-02-25T15:00:52.465Z,14.90
2023-02-25T15:03:43.358Z,14.15
2023-02-25T15:06:18.234Z,13.80
2023-02-25T15:09:18.127Z,12.77
2023-02-25T15:12:36.151Z,11.52
2023-02-25T15:15:27.156Z,11.22
2023-02-25T15:18:05.954Z,11.16
2023-02-25T15:20:33.741Z,11.13
2023-02-25T15:23:03.826Z,10.82
2023-02-25T15:25:38.920Z,10.73
2023-02-25T15:28:30.961Z,10.65
2023-02-25T15:31:03.691Z,10.59
2023-02-25T15:33:43.104Z,10.49
2023-02-25T15:36:16.175Z,10.26
2023-02-25T15:38:50.503Z,9.99
2023-02-25T15:41:29.561Z,9.88
2023-02-25T15:44:00.812Z,9.81
2023-02-25T15:46:33.903Z,9.88
2023-02-25T15:49:35.294Z,10.02
2023-02-25T15:52:06.517Z,10.39
2023-02-25T15:54:38.497Z,10.32
2023-02-25T15:57:11.781Z,10.57
2023-02-25T15:59:53.012Z,10.30
2023-02-25T16:02:29.050Z,10.14
2023-02-25T16:05:13.691Z,9.95
2023-02-25T16:07:43.007Z,9.96
2023-02-25T16:10:18.648Z,9.51
2023-02-25T16:12:49.247Z,9.02
2023-02-25T16:15:35.473Z,8.57
2023-02-25T16:18:13.354Z,8.68
2023-02-25T16:20:47.361Z,8.43
2023-02-25T16:23:18.925Z,8.56
2023-02-25T16:25:54.671Z,8.40
2023-02-25T16:28:44.305Z,8.77
2023-02-25T16:31:42.187Z,8.78
2023-02-25T16:34:22.900Z,8.01
2023-02-25T16:36:52.714Z,8.70
2023-02-25T16:39:25.852Z,8.57
2023-02-25T16:41:57.503Z,8.28
2023-02-25T16:44:38.564Z,7.83
2023-02-25T16:47:18.136Z,8.11
2023-02-25T16:49:47.478Z,8.05
2023-02-25T16:52:25.755Z,7.23
2023-02-25T16:54:59.708Z,7.38
2023-02-25T16:57:28.905Z,7.82
2023-02-25T17:00:20.522Z,7.16
2023-02-25T17:02:54.053Z,7.44
2023-02-25T17:05:23.926Z,7.64
2023-02-25T17:08:01.119Z,7.60
2023-02-25T17:10:31.669Z,7.03
2023-02-25T17:13:00.508Z,7.59
2023-02-25T17:15:30.442Z,7.02
2023-02-25T17:18:24.621Z,6.70
2023-02-25T17:20:55.176Z,7.14
2023-02-25T17:23:21.962Z,6.65
2023-02-25T17:25:52.717Z,6.69
2023-02-25T17:28:28.520Z,6.38
2023-02-25T17:31:06.845Z,7.32
2023-02-25T17:33:38.624Z,6.11
2023-02-25T17:36:08.679Z,7.34
2023-02-25T17:38:38.919Z,6.66
2023-02-25T17:41:14.944Z,7.13
2023-02-25T17:43:41.688Z,6.72
2023-02-25T17:46:24.531Z,7.17
2023-02-25T17:49:01.016Z,6.89
2023-02-25T17:51:36.652Z,6.58
2023-02-25T17:54:07.532Z,6.51
2023-02-25T17:56:35.616Z,6.36
2023-02-25T17:59:31.191Z,6.46
2023-02-25T18:02:00.182Z,6.83
2023-02-25T19:09:59.454Z,7.67
2023-02-25T19:12:29.101Z,7.87
2023-02-25T19:15:03.083Z,7.45
2023-02-25T19:17:32.559Z,7.15
2023-02-25T19:19:59.209Z,8.26
2023-02-25T19:22:26.192Z,7.72
2023-02-25T19:24:52.946Z,7.60
2023-02-25T19:27:31.686Z,7.14
2023-02-25T19:29:59.371Z,6.00
2023-02-25T19:32:27.025Z,5.75
2023-02-25T19:34:56.057Z,6.77
2023-02-25T19:37:22.864Z,5.94
2023-02-25T19:39:51.928Z,6.58
2023-02-25T19:42:21.638Z,6.40
2023-02-25T19:44:50.728Z,6.80
2023-02-25T19:47:17.825Z,6.81
2023-02-25T19:49:46.793Z,7.04
2023-02-25T19:52:19.060Z,7.31
2023-02-25T19:54:48.201Z,7.86
2023-02-25T19:57:15.109Z,7.02
2023-02-25T19:59:42.354Z,7.69
2023-02-25T20:02:13.376Z,7.03
2023-02-25T20:04:40.623Z,7.26
2023-02-25T20:07:07.701Z,7.16
2023-02-25T20:09:34.817Z,7.34
2023-02-25T20:12:06.066Z,8.00
2023-02-25T20:14:33.174Z,7.69
2023-02-25T20:17:02.282Z,7.10
2023-02-25T20:19:35.454Z,7.91
2023-02-25T20:22:03.821Z,7.96
2023-02-25T20:24:30.925Z,7.56
2023-02-25T20:26:58.210Z,8.18
2023-02-25T20:29:25.209Z,8.19
2023-02-25T20:31:54.343Z,7.73
2023-02-25T20:34:22.148Z,7.40
2023-02-25T20:36:59.525Z,8.19
2023-02-25T20:39:38.454Z,8.27
2023-02-25T20:42:12.974Z,8.05
2023-02-25T20:44:45.220Z,7.34
2023-02-25T20:47:21.227Z,7.75
2023-02-25T20:49:48.680Z,8.17
2023-02-25T20:52:20.013Z,8.14
2023-02-25T20:54:50.014Z,7.67
2023-02-25T20:57:19.814Z,6.65
2023-02-25T20:59:48.274Z,7.26
2023-02-25T21:02:15.922Z,6.56
2023-02-25T21:04:45.816Z,6.77
2023-02-25T21:07:13.778Z,6.67
2023-02-25T21:09:43.966Z,5.92
2023-02-25T21:12:10.831Z,6.39
2023-02-25T21:14:42.368Z,5.83
2023-02-25T21:17:14.040Z,5.94
2023-02-25T21:19:46.031Z,5.69
2023-02-25T21:22:15.350Z,5.60
2023-02-25T21:24:44.336Z,6.01
2023-02-25T21:27:12.075Z,5.30
2023-02-25T21:29:40.996Z,5.87
2023-02-25T21:32:10.011Z,5.09
2023-02-25T21:34:39.958Z,5.75
2023-02-25T21:37:07.981Z,5.22
2023-02-25T21:39:34.780Z,5.59
2023-02-25T21:42:01.652Z,4.39
2023-02-25T21:44:33.140Z,5.19
2023-02-25T21:46:59.960Z,5.69
2023-02-25T21:49:29.872Z,4.73
2023-02-25T21:51:58.298Z,3.89
2023-02-25T21:54:25.234Z,4.99
2023-02-25T21:56:51.955Z,5.04
2023-02-25T21:59:19.213Z,5.62
2023-02-25T22:01:46.460Z,5.19
2023-02-25T22:04:13.452Z,5.66
2023-02-25T22:06:43.000Z,5.30
2023-02-25T22:09:09.715Z,5.72
2023-02-25T22:11:40.591Z,5.97
2023-02-25T22:14:08.605Z,6.16
2023-02-25T22:16:36.463Z,6.27
2023-02-25T22:19:03.478Z,6.43
2023-02-25T22:21:34.375Z,6.48
2023-02-25T22:24:02.941Z,6.40
2023-02-25T22:26:34.697Z,6.57
2023-02-25T22:29:06.760Z,6.15
2023-02-25T22:31:35.100Z,6.84
2023-02-25T22:34:02.603Z,6.44
2023-02-25T22:36:29.476Z,6.11
2023-02-25T22:38:56.611Z,5.95
2023-02-25T22:41:28.912Z,6.13
2023-02-25T22:43:58.786Z,6.40
2023-02-25T22:46:28.472Z,6.44
2023-02-25T22:48:55.837Z,6.57
2023-02-25T22:51:32.861Z,5.66
2023-02-25T22:54:02.474Z,5.79
2023-02-25T22:56:29.370Z,5.63
2023-02-25T22:58:59.082Z,6.34
2023-02-25T23:01:26.295Z,5.66
2023-02-25T23:03:54.884Z,5.86
2023-02-25T23:06:34.265Z,5.89
2023-02-25T23:09:09.913Z,5.26
2023-02-25T23:11:39.564Z,5.36
2023-02-25T23:14:12.117Z,5.78
2023-02-25T23:16:41.500Z,5.83
2023-02-25T23:19:09.752Z,5.95
2023-02-25T23:21:38.709Z,5.52
2023-02-25T23:24:07.734Z,5.43
2023-02-25T23:26:39.233Z,5.92
2023-02-25T23:29:13.613Z,4.87
2023-02-25T23:31:47.344Z,5.92
2023-02-25T23:34:18.075Z,5.92
2023-02-25T23:36:45.227Z,5.35
2023-02-25T23:39:16.250Z,5.34
2023-02-25T23:41:45.572Z,4.21
2023-02-25T23:44:13.394Z,5.50
2023-02-25T23:46:43.180Z,5.53
2023-02-25T23:49:14.694Z,5.18
2023-02-25T23:51:46.797Z,5.38
2023-02-25T23:54:16.338Z,5.03
2023-02-25T23:56:43.080Z,5.27
2023-02-25T23:59:15.498Z,5.29
